59.9°F
Current conditions from King Hill
Updated every 5 minutes
 
  Thursday July 24, 2014

Station Historical Data
Daily Summary for April 24, 2012 Units:  Metric    English   Both
« Previous Day
Next Day »
Daily Weekly Monthly Yearly Custom
  High: Low: Average:
Temperature: 9.3 °C 3.2 °C 6.4 °C
Dew Point: 5.9 °C -0.8 °C 2 °C
Humidity: 90% 57% 74%
Wind Speed: 24.1km/h 1.6km/h 10km/h
Wind Gust: 41.8km/h - -
Wind- - SSW
Pressure: 1000.6 hPa 988.7 hPa -
Precipitation: 6.4 mm    
Historical Graphs
 
 
Tabular Data for April 24, 2012
Time Temperature Dew Point Pressure Wind Wind Speed Wind Gust Humidity Daily Rainfall
00:04 7.7 °C 5.9 °C 988.7 hPa SSW 3.2 km/h 14.5 km/h 89% 0 mm
00:09 7.7 °C 5.8 °C 988.7 hPa SSW 4.8 km/h 19.3 km/h 88% 0 mm
00:14 7.8 °C 5.9 °C 989.4 hPa SSW 4.8 km/h 19.3 km/h 88% 0 mm
00:19 7.7 °C 5.7 °C 989.7 hPa South 1.6 km/h 14.5 km/h 87% 0 mm
00:24 7.7 °C 5.7 °C 989.7 hPa South 6.4 km/h 14.5 km/h 87% 0 mm
00:35 7.8 °C 5.6 °C 990.1 hPa South 3.2 km/h 17.7 km/h 86% 0 mm
00:44 7.9 °C 5.7 °C 989.7 hPa SSW 8 km/h 17.7 km/h 86% 0 mm
00:49 7.9 °C 5.5 °C 989.7 hPa SSW 1.6 km/h 17.7 km/h 85% 0 mm
00:54 7.7 °C 5.3 °C 989.4 hPa Calm   12.9 km/h 85% 0 mm
00:59 7.7 °C 5.5 °C 989.1 hPa SSW 3.2 km/h 14.5 km/h 86% 0 mm
01:04 7.7 °C 5.5 °C 989.4 hPa Calm   14.5 km/h 86% 0 mm
01:09 7.6 °C 5.4 °C 989.4 hPa Calm   9.7 km/h 86% 0 mm
01:14 7.5 °C 5.2 °C 989.7 hPa Calm   8 km/h 85% 0 mm
01:19 7.4 °C 5.1 °C 989.7 hPa South 3.2 km/h 11.3 km/h 85% 0 mm
01:24 7.4 °C 5.1 °C 989.4 hPa Calm   11.3 km/h 85% 0 mm
01:29 7.6 °C 4.8 °C 988.7 hPa Calm   8 km/h 83% 0 mm
01:34 7.6 °C 4.7 °C 989.1 hPa Calm   8 km/h 82% 0 mm
01:39 7.5 °C 4.4 °C 989.4 hPa South 1.6 km/h 14.5 km/h 81% 0 mm
01:44 7.6 °C 4.5 °C 989.4 hPa Calm   14.5 km/h 81% 0.3 mm
01:49 7.4 °C 4.4 °C 989.4 hPa SSW 4.8 km/h 14.5 km/h 81% 0.3 mm
01:54 7.7 °C 4.3 °C 989.1 hPa SSE 3.2 km/h 16.1 km/h 79% 0.3 mm
01:59 7.8 °C 4.2 °C 989.4 hPa SE 1.6 km/h 16.1 km/h 78% 0.3 mm
02:04 7.9 °C 4.1 °C 989.1 hPa SSW 3.2 km/h 19.3 km/h 77% 0.3 mm
02:09 7.9 °C 4.1 °C 989.1 hPa Calm   19.3 km/h 77% 0.3 mm
02:14 7.7 °C 4.1 °C 988.7 hPa SSW 1.6 km/h 11.3 km/h 78% 0.3 mm
02:19 7.8 °C 4.2 °C 988.7 hPa SSW 1.6 km/h 22.5 km/h 78% 0.3 mm
02:24 7.8 °C 4.1 °C 988.7 hPa Calm   22.5 km/h 77% 0.3 mm
02:29 8.2 °C 4.4 °C 988.7 hPa SSW 8 km/h 19.3 km/h 77% 0.3 mm
02:34 8 °C 4.6 °C 989.1 hPa SSW 12.9 km/h 27.4 km/h 79% 0.3 mm
02:39 7.7 °C 4.5 °C 989.1 hPa South 8 km/h 27.4 km/h 80% 0.3 mm
02:44 7.4 °C 4.2 °C 989.1 hPa SSW 6.4 km/h 19.3 km/h 80% 0.3 mm
02:49 7.1 °C 4.1 °C 989.1 hPa SW 8 km/h 22.5 km/h 81% 0.3 mm
02:54 6.8 °C 3.9 °C 989.1 hPa SSW 9.7 km/h 22.5 km/h 82% 0.3 mm
02:59 6.4 °C 3.8 °C 989.4 hPa SSW 9.7 km/h 24.1 km/h 83% 0.3 mm
03:04 6.2 °C 3.7 °C 989.4 hPa SSW 8 km/h 24.1 km/h 84% 0.3 mm
03:09 5.9 °C 3.4 °C 989.1 hPa SSW 8 km/h 16.1 km/h 84% 0.3 mm
03:14 5.8 °C 3.4 °C 989.4 hPa SSW 4.8 km/h 22.5 km/h 85% 0.5 mm
03:19 5.7 °C 3.5 °C 989.1 hPa SSW 6.4 km/h 22.5 km/h 86% 0.5 mm
03:24 5.6 °C 3.4 °C 989.1 hPa SSW 11.3 km/h 19.3 km/h 86% 0.5 mm
03:29 5.6 °C 3.6 °C 989.1 hPa SSW 8 km/h 19.3 km/h 87% 0.5 mm
03:34 5.5 °C 3.5 °C 989.1 hPa SSW 1.6 km/h 16.1 km/h 87% 0.5 mm
03:39 5.5 °C 3.5 °C 989.1 hPa SW 6.4 km/h 14.5 km/h 87% 0.5 mm
03:44 5.4 °C 3.6 °C 989.1 hPa SW 11.3 km/h 19.3 km/h 88% 0.5 mm
03:49 5.5 °C 3.7 °C 989.1 hPa SW 6.4 km/h 19.3 km/h 88% 0.5 mm
03:54 5.4 °C 3.6 °C 989.1 hPa SW 6.4 km/h 17.7 km/h 88% 0.5 mm
03:59 5.4 °C 3.7 °C 989.1 hPa SSW 4.8 km/h 14.5 km/h 89% 0.5 mm
04:04 5.4 °C 3.7 °C 989.1 hPa SSW 6.4 km/h 14.5 km/h 89% 0.5 mm
04:09 5.4 °C 3.7 °C 989.1 hPa SW 1.6 km/h 14.5 km/h 89% 1 mm
04:14 5.4 °C 3.9 °C 989.1 hPa Calm   17.7 km/h 90% 1.3 mm
04:19 5.4 °C 3.9 °C 989.1 hPa SW 3.2 km/h 17.7 km/h 90% 1.5 mm
04:24 5.4 °C 3.9 °C 989.1 hPa SSW 8 km/h 24.1 km/h 90% 1.8 mm
04:29 5.4 °C 3.9 °C 989.1 hPa SSW 8 km/h 24.1 km/h 90% 2 mm
04:34 5.3 °C 3.8 °C 989.1 hPa SW 12.9 km/h 24.1 km/h 90% 2.5 mm
04:39 5.3 °C 3.7 °C 989.1 hPa SSW 4.8 km/h 24.1 km/h 89% 2.5 mm
04:44 5.3 °C 3.6 °C 989.1 hPa SSW 6.4 km/h 17.7 km/h 89% 2.8 mm
04:49 5.2 °C 3.5 °C 989.1 hPa SSW 6.4 km/h 16.1 km/h 89% 2.8 mm
04:54 5.1 °C 3.4 °C 989.1 hPa SSW 6.4 km/h 19.3 km/h 89% 2.8 mm
04:59 5.1 °C 3.4 °C 989.1 hPa South 1.6 km/h 19.3 km/h 89% 2.8 mm
05:04 5.1 °C 3.6 °C 989.1 hPa SSW 4.8 km/h 14.5 km/h 90% 3 mm
05:09 5.1 °C 3.6 °C 989.1 hPa Calm   14.5 km/h 90% 3 mm
05:14 5 °C 3.5 °C 988.7 hPa SSW 8 km/h 19.3 km/h 90% 3 mm
05:19 4.9 °C 3.4 °C 988.7 hPa SW 6.4 km/h 19.3 km/h 90% 3 mm
05:24 4.7 °C 3.1 °C 988.7 hPa SW 11.3 km/h 19.3 km/h 89% 3 mm
05:29 4.6 °C 2.9 °C 989.1 hPa SSW 6.4 km/h 19.3 km/h 89% 3.6 mm
05:34 4.5 °C 3 °C 989.1 hPa SSW 1.6 km/h 19.3 km/h 90% 3.6 mm
05:39 4.4 °C 2.9 °C 989.1 hPa SSW 6.4 km/h 19.3 km/h 90% 3.6 mm
05:45 4.3 °C 2.8 °C 989.1 hPa SW 11.3 km/h 24.1 km/h 90% 4.1 mm
05:55 4.1 °C 2.4 °C 989.1 hPa SW 9.7 km/h 29 km/h 89% 4.1 mm
06:04 3.9 °C 2.3 °C 989.1 hPa SW 4.8 km/h 35.4 km/h 89% 4.3 mm
06:09 3.9 °C 2.2 °C 989.4 hPa South 9.7 km/h 30.6 km/h 89% 4.3 mm
06:14 3.8 °C 2.2 °C 989.4 hPa South 8 km/h 30.6 km/h 89% 4.3 mm
06:19 3.8 °C 2.1 °C 989.4 hPa SSW 12.9 km/h 25.7 km/h 89% 4.6 mm
06:24 3.7 °C 2.1 °C 989.4 hPa SSW 6.4 km/h 25.7 km/h 89% 4.6 mm
06:29 3.6 °C 1.9 °C 989.4 hPa South 12.9 km/h 33.8 km/h 89% 4.8 mm
06:34 3.5 °C 1.7 °C 989.4 hPa South 11.3 km/h 33.8 km/h 88% 5.1 mm
06:39 3.4 °C 1.7 °C 989.4 hPa South 16.1 km/h 29 km/h 88% 5.3 mm
06:44 3.4 °C 1.7 °C 989.4 hPa SSW 12.9 km/h 30.6 km/h 88% 5.3 mm
06:54 3.4 °C 1.7 °C 989.4 hPa South 6.4 km/h 29 km/h 88% 5.3 mm
06:59 3.4 °C 1.7 °C 989.4 hPa South 11.3 km/h 27.4 km/h 88% 5.3 mm
07:04 3.4 °C 1.7 °C 989.7 hPa SSW 8 km/h 27.4 km/h 88% 5.3 mm
07:09 3.4 °C 1.7 °C 989.7 hPa SSW 4.8 km/h 22.5 km/h 88% 5.3 mm
07:14 3.4 °C 1.7 °C 989.7 hPa SSW 8 km/h 19.3 km/h 88% 5.3 mm
07:19 3.5 °C 1.7 °C 989.7 hPa SSW 3.2 km/h 19.3 km/h 88% 5.3 mm
07:24 3.6 °C 1.8 °C 989.7 hPa SSW 6.4 km/h 16.1 km/h 88% 5.3 mm
07:29 3.6 °C 1.8 °C 990.1 hPa SW 9.7 km/h 19.3 km/h 88% 5.3 mm
07:34 3.6 °C 1.6 °C 990.1 hPa WSW 6.4 km/h 19.3 km/h 87% 5.6 mm
07:39 3.3 °C 1.3 °C 990.1 hPa SW 11.3 km/h 24.1 km/h 87% 5.6 mm
07:44 3.2 °C 1.4 °C 990.1 hPa SW 8 km/h 24.1 km/h 88% 5.8 mm
07:49 3.2 °C 1.4 °C 990.4 hPa SW 11.3 km/h 27.4 km/h 88% 6.1 mm
07:59 3.2 °C 1.4 °C 990.4 hPa SSW 12.9 km/h 27.4 km/h 88% 6.1 mm
08:04 3.2 °C 1.4 °C 990.4 hPa SSW 12.9 km/h 27.4 km/h 88% 6.1 mm
08:09 3.3 °C 1.6 °C 990.4 hPa SSW 11.3 km/h 29 km/h 88% 6.1 mm
08:14 3.4 °C 1.5 °C 990.4 hPa SSW 8 km/h 29 km/h 87% 6.1 mm
08:19 3.7 °C 1.9 °C 990.4 hPa SSW 4.8 km/h 16.1 km/h 88% 6.1 mm
08:24 3.9 °C 2.1 °C 990.4 hPa SW 8 km/h 20.9 km/h 88% 6.1 mm
08:29 4 °C 2.1 °C 990.4 hPa SSW 12.9 km/h 25.7 km/h 87% 6.1 mm
08:34 4.3 °C 2.3 °C 990.4 hPa SSW 9.7 km/h 25.7 km/h 87% 6.1 mm
08:39 4.7 °C 2.7 °C 990.4 hPa SSW 8 km/h 20.9 km/h 87% 6.1 mm
08:44 5.2 °C 3.2 °C 990.4 hPa SSW 11.3 km/h 24.1 km/h 87% 6.1 mm
08:54 5.1 °C 2.3 °C 990.7 hPa SSW 16.1 km/h 29 km/h 82% 6.1 mm
08:59 5.3 °C 2.3 °C 990.7 hPa SSW 14.5 km/h 37 km/h 81% 6.1 mm
09:04 5.3 °C 2 °C 990.7 hPa SSW 12.9 km/h 37 km/h 79% 6.1 mm
09:09 5.8 °C 2.4 °C 990.7 hPa SSW 14.5 km/h 29 km/h 79% 6.1 mm
09:14 5.9 °C 2.1 °C 990.7 hPa SSW 11.3 km/h 35.4 km/h 76% 6.1 mm
09:19 5.8 °C 1.4 °C 990.7 hPa SSW 14.5 km/h 35.4 km/h 73% 6.1 mm
09:24 5.6 °C 1.2 °C 990.7 hPa SSW 16.1 km/h 38.6 km/h 73% 6.1 mm
09:29 5.4 °C 1.1 °C 990.7 hPa SSW 12.9 km/h 38.6 km/h 74% 6.1 mm
09:35 5.2 °C 0.8 °C 991.1 hPa SSW 12.9 km/h 27.4 km/h 73% 6.1 mm
09:44 5.1 °C 0.8 °C 991.1 hPa SSW 17.7 km/h 35.4 km/h 74% 6.1 mm
09:49 5.4 °C 1.3 °C 991.1 hPa SSW 9.7 km/h 35.4 km/h 75% 6.1 mm
09:59 5.7 °C 1.3 °C 991.1 hPa SSW 11.3 km/h 29 km/h 73% 6.1 mm
10:04 5.8 °C 1.1 °C 991.1 hPa SSW 17.7 km/h 35.4 km/h 72% 6.1 mm
10:09 5.8 °C 1.1 °C 991.1 hPa SSW 16.1 km/h 35.4 km/h 72% 6.1 mm
10:14 5.7 °C 0.9 °C 991.1 hPa SSW 12.9 km/h 35.4 km/h 71% 6.1 mm
10:19 5.8 °C 1.3 °C 991.4 hPa South 9.7 km/h 35.4 km/h 73% 6.1 mm
10:24 5.6 °C 0.8 °C 991.4 hPa South 16.1 km/h 30.6 km/h 71% 6.1 mm
10:29 5.6 °C 0.9 °C 991.4 hPa SSW 14.5 km/h 38.6 km/h 72% 6.1 mm
10:34 5.8 °C 1.6 °C 991.4 hPa SSW 6.4 km/h 38.6 km/h 74% 6.1 mm
10:39 6.7 °C 2.4 °C 991.4 hPa SW 9.7 km/h 19.3 km/h 74% 6.1 mm
10:44 7.6 °C 2.4 °C 991.4 hPa SSW 8 km/h 19.3 km/h 70% 6.1 mm
10:50 7.5 °C 2 °C 991.4 hPa SSW 9.7 km/h 33.8 km/h 68% 6.1 mm
10:59 6.6 °C 1.3 °C 992.1 hPa SSW 16.1 km/h 33.8 km/h 69% 6.1 mm
11:04 5.2 °C 0.7 °C 992.1 hPa SW 17.7 km/h 35.4 km/h 73% 6.1 mm
11:09 4.7 °C 1.2 °C 992.1 hPa SW 11.3 km/h 35.4 km/h 78% 6.1 mm
11:14 4.8 °C 1.5 °C 992.1 hPa SSW 16.1 km/h 29 km/h 79% 6.1 mm
11:19 5.4 °C 2.4 °C 992.1 hPa SSW 9.7 km/h 29 km/h 81% 6.1 mm
11:24 6.3 °C 2.7 °C 992.1 hPa SSW 14.5 km/h 25.7 km/h 78% 6.1 mm
11:29 7.1 °C 3.1 °C 992.1 hPa SW 14.5 km/h 24.1 km/h 76% 6.1 mm
11:34 7.2 °C 2.1 °C 992.1 hPa SSW 16.1 km/h 32.2 km/h 70% 6.1 mm
11:39 7.1 °C 2.2 °C 992.1 hPa SSW 9.7 km/h 32.2 km/h 71% 6.1 mm
11:44 7 °C 1.7 °C 992.1 hPa SSW 14.5 km/h 30.6 km/h 69% 6.1 mm
11:49 7.4 °C 1.2 °C 992.1 hPa SSW 12.9 km/h 33.8 km/h 65% 6.1 mm
11:54 7.3 °C 0.7 °C 992.1 hPa SW 14.5 km/h 35.4 km/h 63% 6.1 mm
11:59 6.8 °C 0.7 °C 992.4 hPa SW 16.1 km/h 38.6 km/h 65% 6.1 mm
12:04 5.6 °C 1.3 °C 992.8 hPa SW 12.9 km/h 38.6 km/h 74% 6.1 mm
12:09 5.9 °C 3.1 °C 992.4 hPa SW 4.8 km/h 29 km/h 82% 6.1 mm
12:14 6.9 °C 3 °C 992.4 hPa SSW 17.7 km/h 32.2 km/h 76% 6.1 mm
12:19 7.2 °C 2.3 °C 992.8 hPa SSW 19.3 km/h 32.2 km/h 71% 6.1 mm
12:24 6.9 °C 2 °C 992.8 hPa SSW 16.1 km/h 35.4 km/h 71% 6.1 mm
12:29 6.8 °C 2.1 °C 992.8 hPa SSW 14.5 km/h 35.4 km/h 72% 6.1 mm
12:34 7.3 °C 2.6 °C 992.8 hPa SSW 12.9 km/h 29 km/h 72% 6.1 mm
12:44 7.9 °C 2.9 °C 992.8 hPa SSW 12.9 km/h 32.2 km/h 71% 6.1 mm
12:49 7.8 °C 1.8 °C 992.8 hPa SSW 9.7 km/h 30.6 km/h 66% 6.1 mm
12:54 8.2 °C 2.7 °C 992.8 hPa SSW 8 km/h 33.8 km/h 68% 6.1 mm
12:59 8.6 °C 1.9 °C 992.8 hPa SW 19.3 km/h 33.8 km/h 63% 6.1 mm
13:04 8.2 °C 1.1 °C 993.1 hPa SSW 20.9 km/h 40.2 km/h 61% 6.1 mm
13:09 8.2 °C 1.3 °C 992.8 hPa SSW 17.7 km/h 40.2 km/h 62% 6.1 mm
13:14 8.4 °C 1.3 °C 992.8 hPa SW 20.9 km/h 40.2 km/h 61% 6.1 mm
13:19 8.4 °C 0.8 °C 993.1 hPa SSW 19.3 km/h 41.8 km/h 59% 6.1 mm
13:24 8.4 °C 1.1 °C 993.1 hPa SSW 16.1 km/h 41.8 km/h 60% 6.1 mm
13:29 8.8 °C 1.7 °C 993.1 hPa SSW 12.9 km/h 29 km/h 61% 6.1 mm
13:34 8.4 °C 1.1 °C 993.1 hPa SSW 14.5 km/h 33.8 km/h 60% 6.1 mm
13:44 7.4 °C 1.9 °C 993.5 hPa SSW 16.1 km/h 35.4 km/h 68% 6.1 mm
13:49 7.2 °C 1.7 °C 993.5 hPa SSW 11.3 km/h 40.2 km/h 68% 6.1 mm
13:54 7.3 °C 1.8 °C 993.5 hPa SSW 16.1 km/h 40.2 km/h 68% 6.1 mm
14:04 7.8 °C 2.2 °C 993.5 hPa South 11.3 km/h 29 km/h 68% 6.1 mm
14:09 7.8 °C 1.8 °C 993.5 hPa SSW 9.7 km/h 25.7 km/h 66% 6.1 mm
14:14 7.9 °C 1.7 °C 993.5 hPa SSW 16.1 km/h 32.2 km/h 65% 6.1 mm
14:19 8.1 °C 1.9 °C 993.5 hPa SSW 6.4 km/h 37 km/h 65% 6.1 mm
14:24 8.3 °C 1.2 °C 993.5 hPa SSW 14.5 km/h 37 km/h 61% 6.1 mm
14:29 8.9 °C 1.3 °C 993.8 hPa SSW 17.7 km/h 37 km/h 59% 6.1 mm
14:34 9.3 °C 1.9 °C 993.8 hPa SW 11.3 km/h 32.2 km/h 60% 6.1 mm
14:40 8.9 °C 1.1 °C 993.8 hPa SW 16.1 km/h 37 km/h 58% 6.1 mm
14:45 8.3 °C 0.5 °C 994.1 hPa SW 12.9 km/h 37 km/h 58% 6.1 mm
14:54 7.1 °C 1.1 °C 994.5 hPa SW 24.1 km/h 41.8 km/h 66% 6.1 mm
14:59 6.1 °C 2.5 °C 994.5 hPa SSW 9.7 km/h 41.8 km/h 78% 6.4 mm
15:04 6.3 °C 3.1 °C 994.5 hPa SSW 11.3 km/h 33.8 km/h 80% 6.4 mm
15:09 6.5 °C 2.8 °C 994.5 hPa SSW 14.5 km/h 27.4 km/h 77% 6.4 mm
15:14 6.7 °C 2.2 °C 994.5 hPa South 12.9 km/h 32.2 km/h 73% 6.4 mm
15:19 7.3 °C 2.2 °C 994.5 hPa South 12.9 km/h 32.2 km/h 70% 6.4 mm
15:29 8.2 °C 2.2 °C 994.5 hPa SSW 12.9 km/h 30.6 km/h 66% 6.4 mm
15:39 8.4 °C 1.6 °C 994.5 hPa SSW 17.7 km/h 38.6 km/h 62% 6.4 mm
15:44 8.8 °C 2.1 °C 994.8 hPa SW 16.1 km/h 35.4 km/h 63% 6.4 mm
15:49 8.7 °C 1.4 °C 994.8 hPa SSW 20.9 km/h 35.4 km/h 60% 6.4 mm
15:54 8.2 °C 1.6 °C 994.8 hPa SSW 14.5 km/h 33.8 km/h 63% 6.4 mm
15:59 8 °C 1.6 °C 994.8 hPa SSW 11.3 km/h 33.8 km/h 64% 6.4 mm
16:04 8.1 °C 1.7 °C 994.8 hPa SW 11.3 km/h 29 km/h 64% 6.4 mm
16:09 8.2 °C 1.8 °C 995.1 hPa SSW 9.7 km/h 29 km/h 64% 6.4 mm
16:14 8.3 °C 1.9 °C 995.5 hPa SSW 14.5 km/h 30.6 km/h 64% 6.4 mm
16:19 8.3 °C 2.1 °C 995.5 hPa SW 9.7 km/h 30.6 km/h 65% 6.4 mm
16:24 8.3 °C 2.3 °C 995.5 hPa SSW 4.8 km/h 24.1 km/h 66% 6.4 mm
16:29 8.1 °C 1.7 °C 995.5 hPa SSW 12.9 km/h 27.4 km/h 64% 6.4 mm
16:34 7.9 °C 1.8 °C 995.5 hPa SSW 11.3 km/h 27.4 km/h 65% 6.4 mm
16:39 8.2 °C 2.1 °C 995.5 hPa SSW 8 km/h 25.7 km/h 65% 6.4 mm
16:44 8.3 °C 1.4 °C 995.8 hPa SSW 14.5 km/h 33.8 km/h 62% 6.4 mm
16:49 8 °C 1.2 °C 995.8 hPa SSW 14.5 km/h 37 km/h 62% 6.4 mm
16:54 7.8 °C 1.2 °C 995.8 hPa SSW 16.1 km/h 37 km/h 63% 6.4 mm
16:59 7.6 °C 1.4 °C 995.8 hPa SSW 11.3 km/h 30.6 km/h 65% 6.4 mm
17:04 7.6 °C 1.4 °C 995.8 hPa SSW 9.7 km/h 32.2 km/h 65% 6.4 mm
17:09 7.7 °C 1.3 °C 996.2 hPa SSW 8 km/h 32.2 km/h 64% 6.4 mm
17:14 7.8 °C 1.6 °C 996.2 hPa SSW 11.3 km/h 24.1 km/h 65% 6.4 mm
17:19 7.8 °C 1.4 °C 996.2 hPa SSW 11.3 km/h 22.5 km/h 64% 6.4 mm
17:24 7.8 °C 1.4 °C 996.2 hPa South 14.5 km/h 29 km/h 64% 6.4 mm
17:29 8 °C 1.4 °C 996.2 hPa SSW 6.4 km/h 29 km/h 63% 6.4 mm
17:34 8 °C 1.4 °C 996.2 hPa SSW 8 km/h 24.1 km/h 63% 6.4 mm
17:45 8.6 °C 1.9 °C 996.2 hPa SW 1.6 km/h 27.4 km/h 63% 6.4 mm
17:54 8.9 °C 1.1 °C 996.2 hPa SSW 16.1 km/h 25.7 km/h 58% 6.4 mm
17:59 8.7 °C 0.9 °C 996.2 hPa SSW 11.3 km/h 25.7 km/h 58% 6.4 mm
18:04 8.5 °C 0.9 °C 996.5 hPa SSW 9.7 km/h 20.9 km/h 59% 6.4 mm
18:09 8.2 °C 0.6 °C 996.2 hPa South 9.7 km/h 27.4 km/h 59% 6.4 mm
18:14 7.9 °C 0.8 °C 996.5 hPa SSW 9.7 km/h 27.4 km/h 61% 6.4 mm
18:24 7.7 °C 0.2 °C 996.5 hPa SSW 14.5 km/h 32.2 km/h 59% 6.4 mm
18:30 7.7 °C 0 °C 996.5 hPa SSW 11.3 km/h 32.2 km/h 58% 6.4 mm
18:39 7.7 °C -0.3 °C 996.5 hPa SSW 14.5 km/h 20.9 km/h 57% 6.4 mm
18:44 7.7 °C -0.1 °C 996.8 hPa SSW 11.3 km/h 20.9 km/h 58% 6.4 mm
18:49 7.6 °C -0.2 °C 996.8 hPa SW 12.9 km/h 25.7 km/h 58% 6.4 mm
18:54 7.5 °C 0 °C 996.8 hPa SW 8 km/h 25.7 km/h 59% 6.4 mm
19:04 7.6 °C 0.1 °C 996.8 hPa SSW 8 km/h 17.7 km/h 59% 6.4 mm
19:09 7.6 °C 0.1 °C 996.8 hPa South 4.8 km/h 20.9 km/h 59% 6.4 mm
19:14 7.5 °C 0 °C 996.8 hPa SSW 11.3 km/h 22.5 km/h 59% 6.4 mm
19:19 7.6 °C 0.1 °C 997.2 hPa SSW 9.7 km/h 27.4 km/h 59% 6.4 mm
19:24 7.5 °C 0 °C 997.2 hPa SSW 11.3 km/h 27.4 km/h 59% 6.4 mm
19:30 7.4 °C -0.1 °C 997.2 hPa SW 11.3 km/h 24.1 km/h 59% 6.4 mm
19:39 7.2 °C -0.3 °C 997.5 hPa SSW 4.8 km/h 25.7 km/h 59% 6.4 mm
19:44 7.2 °C -0.3 °C 997.5 hPa SSW 3.2 km/h 17.7 km/h 59% 6.4 mm
19:49 7.1 °C -0.6 °C 997.5 hPa SSW 6.4 km/h 16.1 km/h 58% 6.4 mm
19:54 7 °C -0.7 °C 997.9 hPa SSW 4.8 km/h 16.1 km/h 58% 6.4 mm
19:59 7 °C -0.7 °C 997.9 hPa SSW 3.2 km/h 19.3 km/h 58% 6.4 mm
20:04 6.9 °C -0.8 °C 998.2 hPa SW 8 km/h 25.7 km/h 58% 6.4 mm
20:09 6.9 °C -0.8 °C 997.9 hPa SSW 12.9 km/h 25.7 km/h 58% 6.4 mm
20:14 6.9 °C -0.6 °C 998.2 hPa South 14.5 km/h 25.7 km/h 59% 6.4 mm
20:19 6.8 °C -0.2 °C 998.2 hPa South 12.9 km/h 29 km/h 61% 6.4 mm
20:24 6.8 °C -0.2 °C 998.2 hPa SSW 8 km/h 29 km/h 61% 6.4 mm
20:29 6.8 °C -0.2 °C 998.5 hPa SSW 8 km/h 25.7 km/h 61% 6.4 mm
20:34 6.8 °C -0.2 °C 998.5 hPa SSW 9.7 km/h 17.7 km/h 61% 6.4 mm
20:44 6.7 °C 0.2 °C 998.5 hPa SSW 6.4 km/h 17.7 km/h 63% 6.4 mm
20:49 6.8 °C 0.2 °C 998.5 hPa SSW 9.7 km/h 20.9 km/h 63% 6.4 mm
20:59 6.7 °C 0.4 °C 998.9 hPa SSW 11.3 km/h 24.1 km/h 64% 6.4 mm
21:04 6.8 °C 0.4 °C 998.9 hPa SSW 8 km/h 24.1 km/h 64% 6.4 mm
21:09 6.7 °C 0.4 °C 998.9 hPa South 9.7 km/h 24.1 km/h 64% 6.4 mm
21:14 6.7 °C 0.3 °C 998.9 hPa SSW 12.9 km/h 27.4 km/h 64% 6.4 mm
21:19 6.7 °C 0.3 °C 998.9 hPa SSW 11.3 km/h 29 km/h 64% 6.4 mm
21:24 6.7 °C 0.3 °C 999.2 hPa SSW 11.3 km/h 29 km/h 64% 6.4 mm
21:29 6.6 °C 0.5 °C 999.2 hPa SSW 11.3 km/h 29 km/h 65% 6.4 mm
21:34 6.5 °C 0.6 °C 999.2 hPa SSW 11.3 km/h 29 km/h 66% 6.4 mm
21:39 6.4 °C 0.7 °C 999.2 hPa South 6.4 km/h 25.7 km/h 67% 6.4 mm
21:44 6.3 °C 0.6 °C 999.2 hPa SSW 6.4 km/h 16.1 km/h 67% 6.4 mm
21:49 6.2 °C 0.8 °C 999.2 hPa SSW 3.2 km/h 16.1 km/h 68% 6.4 mm
21:54 6.2 °C 0.7 °C 999.5 hPa SSW 9.7 km/h 17.7 km/h 68% 6.4 mm
22:04 6 °C 0.9 °C 999.5 hPa South 4.8 km/h 19.3 km/h 70% 6.4 mm
22:09 5.9 °C 1.1 °C 999.5 hPa SSW 3.2 km/h 19.3 km/h 71% 6.4 mm
22:14 5.9 °C 1.1 °C 999.5 hPa South 9.7 km/h 17.7 km/h 71% 6.4 mm
22:19 5.8 °C 1 °C 999.5 hPa SSW 9.7 km/h 19.3 km/h 71% 6.4 mm
22:24 5.8 °C 0.8 °C 999.5 hPa SW 14.5 km/h 27.4 km/h 70% 6.4 mm
22:29 5.8 °C 0.8 °C 999.5 hPa SSW 11.3 km/h 27.4 km/h 70% 6.4 mm
22:34 5.8 °C 0.7 °C 999.5 hPa SSW 6.4 km/h 22.5 km/h 70% 6.4 mm
22:39 5.8 °C 0.7 °C 999.9 hPa SSW 11.3 km/h 24.1 km/h 70% 6.4 mm
22:44 5.7 °C 0.4 °C 999.9 hPa SSW 12.9 km/h 24.1 km/h 69% 6.4 mm
22:49 5.7 °C 0.4 °C 999.9 hPa SSW 4.8 km/h 22.5 km/h 69% 6.4 mm
22:54 5.6 °C 0.3 °C 999.9 hPa South 6.4 km/h 22.5 km/h 69% 6.4 mm
22:59 5.5 °C 0.3 °C 999.9 hPa SSW 6.4 km/h 20.9 km/h 69% 6.4 mm
23:04 5.5 °C 0.3 °C 999.9 hPa SSW 9.7 km/h 19.3 km/h 69% 6.4 mm
23:09 5.5 °C 0.3 °C 999.9 hPa SSW 8 km/h 20.9 km/h 69% 6.4 mm
23:14 5.4 °C 0.2 °C 999.9 hPa SSW 11.3 km/h 22.5 km/h 69% 6.4 mm
23:19 5.4 °C 0.2 °C 1000.2 hPa SW 9.7 km/h 22.5 km/h 69% 6.4 mm
23:24 5.3 °C 0.1 °C 1000.2 hPa SSW 8 km/h 20.9 km/h 69% 6.4 mm
23:29 5.3 °C 0.3 °C 1000.2 hPa SW 6.4 km/h 22.5 km/h 70% 6.4 mm
23:34 5.2 °C 0.2 °C 1000.2 hPa SSW 8 km/h 22.5 km/h 70% 6.4 mm
23:39 5.1 °C 0.1 °C 1000.2 hPa SSW 8 km/h 17.7 km/h 70% 6.4 mm
23:44 5 °C 0.2 °C 1000.6 hPa SSW 8 km/h 17.7 km/h 71% 6.4 mm
23:49 4.8 °C 0.2 °C 1000.6 hPa SSW 6.4 km/h 19.3 km/h 72% 6.4 mm
23:54 4.7 °C 0.1 °C 1000.6 hPa SW 1.6 km/h 19.3 km/h 72% 6.4 mm
23:59 4.6 °C 0.1 °C 1000.6 hPa Calm   14.5 km/h 73% 6.4 mm
Westford Weather
Compliments of Weather Underground

 
 
Current Radar Loop:

Copyright © WestfordWeather.net 2007-2014. All rights reserved.